Startpagina
METAR-TAF:

METAR-TAF

Vliegvelden :

Flughafen Dortmund

Dortmund, Duitsland

breedte: 51-31N, lengte: 007-37E, hoogte: 127 m

Actueel weer

Dit bericht is 21 minuten geleden gemaakt, om 04:20 UTC
Wind 5 kt uit het westzuidwesten
Temperatuur 11°C
Vochtigheid 82%
Druk 1010 hPa
Zicht 10 km of meer
Weinig wolken op 2400 ft
Gebroken wolken op 4000 ft

METAR: EDLW 260420Z 25005KT 9999 FEW024 BKN040 11/08 Q1010

Tijdstip: 06:41 (04:41 UTC)

Verwachting

Dit bericht is 46 minuten geleden gemaakt, om 03:55 UTC
Verwachting geldig van 26 om 04 UTC tot 26 om 24 UTC
Wind 8 kt uit het westzuidwesten
Zicht 10 km of meer
Weinig wolken op 3500 ft
Tijdelijke
van 26 om 05 UTC tot 26 om 10 UTC
Wind 3 kt uit variabele richting
Zicht: 4500 m
Gebroken wolken op 1300 ft
lichte regen
Wijzigt naar
van 26 om 17 UTC tot 26 om 20 UTC
Wind 6 kt uit het zuiden

TAF: EDLW 260355Z 2604/2624 25008KT 9999 FEW035 TEMPO 2605/2610 VRB03KT 4500 -RA BKN013 BECMG 2617/2620 19006KT

Waarnemingen en weersverwachtingen van meer dan 4000 vliegvelden (METAR en TAF).

De beschikbare stations zijn de gele en rode punten op de kaart.

Ga met uw muis naar het station om de naam te zien.

Klik dan om waarnemingen en weersverwachtingen te zien.

kaart wijzigen: klik op de groene knoppen met een zwart kruis om in te zoomen, op de groene knop met een streepje om uit te zoomen of op de groene pijlen voor aangrenzende kaarten.


METAR-TAF: